createdAt,value
2018-12-22T00:01:18.839Z,1.80
2018-12-22T00:03:46.428Z,1.90
2018-12-22T00:06:14.034Z,2.20
2018-12-22T00:08:41.725Z,1.80
2018-12-22T00:11:09.479Z,1.97
2018-12-22T00:13:37.355Z,2.60
2018-12-22T00:16:05.003Z,2.97
2018-12-22T00:18:32.673Z,1.70
2018-12-22T00:21:00.282Z,1.03
2018-12-22T00:23:27.903Z,1.67
2018-12-22T00:25:55.614Z,1.37
2018-12-22T00:28:23.315Z,1.40
2018-12-22T00:30:50.905Z,1.63
2018-12-22T00:33:18.602Z,1.70
2018-12-22T00:35:46.163Z,2.67
2018-12-22T00:38:13.985Z,1.60
2018-12-22T00:40:41.747Z,1.30
2018-12-22T00:43:09.616Z,2.00
2018-12-22T00:45:37.185Z,2.10
2018-12-22T00:48:05.041Z,1.43
2018-12-22T00:50:33.111Z,2.50
2018-12-22T00:53:00.901Z,1.50
2018-12-22T00:55:28.460Z,2.10
2018-12-22T00:57:56.095Z,2.10
2018-12-22T01:00:23.719Z,2.03
2018-12-22T01:02:51.432Z,2.00
2018-12-22T01:05:19.163Z,1.87
2018-12-22T01:07:46.805Z,1.33
2018-12-22T01:10:15.897Z,1.00
2018-12-22T01:12:44.537Z,1.43
2018-12-22T01:15:13.022Z,1.33
2018-12-22T01:17:41.529Z,1.57
2018-12-22T01:20:09.495Z,2.20
2018-12-22T01:22:37.335Z,2.00
2018-12-22T01:25:05.831Z,1.20
2018-12-22T01:27:33.517Z,1.60
2018-12-22T01:30:01.156Z,1.33
2018-12-22T01:32:28.826Z,1.23
2018-12-22T01:34:56.522Z,1.13
2018-12-22T01:37:24.146Z,1.13
2018-12-22T01:39:51.731Z,0.90
2018-12-22T01:42:19.340Z,0.50
2018-12-22T01:44:47.333Z,0.83
2018-12-22T01:47:14.974Z,0.40
2018-12-22T01:49:42.700Z,0.43
2018-12-22T01:52:10.344Z,0.50
2018-12-22T01:54:37.972Z,0.73
2018-12-22T01:57:05.729Z,0.40
2018-12-22T01:59:33.603Z,0.73
2018-12-22T02:02:01.297Z,0.50
2018-12-22T02:04:29.082Z,1.00
2018-12-22T02:06:56.790Z,0.47
2018-12-22T02:09:24.651Z,1.07
2018-12-22T02:11:52.423Z,0.83
2018-12-22T02:14:20.054Z,0.80
2018-12-22T02:16:47.764Z,1.17
2018-12-22T02:19:15.515Z,1.00
2018-12-22T02:21:43.280Z,0.83
2018-12-22T02:24:10.895Z,1.50
2018-12-22T02:26:38.702Z,1.17
2018-12-22T02:29:06.471Z,1.97
2018-12-22T02:31:34.173Z,1.37
2018-12-22T02:34:01.800Z,0.97
2018-12-22T02:36:29.450Z,1.20
2018-12-22T02:38:57.191Z,1.17
2018-12-22T02:41:24.833Z,1.30
2018-12-22T02:43:52.402Z,1.00
2018-12-22T02:46:20.081Z,1.70
2018-12-22T02:48:47.742Z,1.73
2018-12-22T02:51:15.315Z,1.97
2018-12-22T02:53:42.885Z,1.37
2018-12-22T02:56:10.554Z,0.90
2018-12-22T02:58:38.297Z,1.60
2018-12-22T03:01:05.891Z,1.17
2018-12-22T03:03:34.150Z,1.10
2018-12-22T03:06:01.811Z,1.30
2018-12-22T03:08:29.921Z,1.93
2018-12-22T03:10:57.586Z,2.30
2018-12-22T03:13:25.248Z,2.63
2018-12-22T03:15:52.949Z,0.90
2018-12-22T03:18:20.543Z,1.03
2018-12-22T03:20:48.313Z,1.00
2018-12-22T03:23:16.068Z,1.77
2018-12-22T03:25:43.646Z,2.00
2018-12-22T03:28:11.486Z,2.10
2018-12-22T03:30:39.262Z,2.13
2018-12-22T03:33:07.037Z,2.37
2018-12-22T03:35:34.643Z,1.40
2018-12-22T03:38:02.281Z,1.77
2018-12-22T03:40:29.990Z,1.07
2018-12-22T03:42:57.628Z,1.30
2018-12-22T03:45:25.211Z,1.33
2018-12-22T03:47:53.295Z,1.77
2018-12-22T03:50:20.894Z,1.63
2018-12-22T03:52:48.648Z,1.30
2018-12-22T03:55:16.309Z,1.57
2018-12-22T03:57:43.910Z,2.10
2018-12-22T04:00:11.532Z,1.60
2018-12-22T04:02:39.155Z,1.20
2018-12-22T04:05:07.785Z,1.47
2018-12-22T04:07:35.882Z,1.13
2018-12-22T04:10:05.124Z,1.70
2018-12-22T04:12:32.897Z,0.70
2018-12-22T04:15:00.573Z,0.70
2018-12-22T04:17:28.164Z,0.57
2018-12-22T04:19:55.980Z,0.80
2018-12-22T04:22:23.952Z,0.63
2018-12-22T04:24:53.643Z,0.53
2018-12-22T04:27:21.328Z,0.80
2018-12-22T04:29:49.292Z,0.50
2018-12-22T04:32:17.161Z,0.77
2018-12-22T04:34:44.816Z,0.90
2018-12-22T04:37:12.407Z,0.60
2018-12-22T04:39:40.067Z,1.43
2018-12-22T04:42:07.697Z,1.57
2018-12-22T04:44:35.295Z,1.23
2018-12-22T04:47:02.923Z,1.40
2018-12-22T04:49:30.546Z,1.70
2018-12-22T04:51:58.197Z,2.80
2018-12-22T04:54:25.884Z,3.90
2018-12-22T04:56:53.593Z,2.20
2018-12-22T04:59:21.201Z,1.23
2018-12-22T05:01:48.845Z,1.23
2018-12-22T05:04:16.441Z,1.70
2018-12-22T05:06:44.078Z,1.50
2018-12-22T05:09:11.729Z,2.43
2018-12-22T05:11:39.431Z,3.50
2018-12-22T05:14:07.084Z,3.40
2018-12-22T05:16:34.654Z,6.70
2018-12-22T05:19:02.329Z,6.57
2018-12-22T05:21:30.210Z,8.20
2018-12-22T05:23:57.866Z,6.77
2018-12-22T05:26:25.626Z,5.80
2018-12-22T05:28:54.225Z,7.63
2018-12-22T05:31:22.073Z,5.80
2018-12-22T05:33:49.722Z,5.20
2018-12-22T05:36:17.361Z,4.20
2018-12-22T05:38:45.079Z,3.77
2018-12-22T05:41:12.752Z,3.17
2018-12-22T05:43:40.343Z,3.07
2018-12-22T05:46:08.126Z,3.60
2018-12-22T05:48:35.821Z,3.43
2018-12-22T05:51:03.589Z,4.23
2018-12-22T05:53:31.345Z,6.90
2018-12-22T05:55:59.078Z,6.57
2018-12-22T05:58:26.888Z,8.03
2018-12-22T06:00:54.712Z,10.30
2018-12-22T06:03:22.509Z,9.90
2018-12-22T06:05:51.702Z,8.90
2018-12-22T06:08:19.474Z,11.03
2018-12-22T06:10:47.226Z,10.70
2018-12-22T06:13:15.090Z,10.60
2018-12-22T06:15:42.679Z,17.60
2018-12-22T06:18:10.466Z,16.23
2018-12-22T06:20:38.201Z,16.13
2018-12-22T06:23:05.881Z,14.80
2018-12-22T06:25:33.602Z,9.00
2018-12-22T06:28:01.186Z,8.20
2018-12-22T06:30:28.759Z,7.30
2018-12-22T06:32:56.396Z,6.63
2018-12-22T06:35:24.056Z,7.47
2018-12-22T06:37:51.725Z,8.73
2018-12-22T06:40:19.321Z,8.07
2018-12-22T06:42:46.993Z,9.17
2018-12-22T06:45:14.656Z,7.53
2018-12-22T06:47:42.314Z,10.30
2018-12-22T06:50:10.090Z,8.20
2018-12-22T06:52:37.757Z,9.67
2018-12-22T06:55:06.375Z,9.50
2018-12-22T06:57:33.979Z,9.37
2018-12-22T07:00:01.920Z,10.87
2018-12-22T07:02:29.587Z,11.63
2018-12-22T07:04:57.189Z,9.83
2018-12-22T07:07:24.759Z,8.97
2018-12-22T07:09:52.417Z,7.17
2018-12-22T07:12:20.042Z,10.57
2018-12-22T07:14:48.955Z,11.03
2018-12-22T07:17:16.631Z,9.40
2018-12-22T07:19:44.209Z,9.27
2018-12-22T07:22:12.263Z,9.50
2018-12-22T07:24:41.162Z,9.83
2018-12-22T07:27:08.869Z,8.80
2018-12-22T07:29:36.578Z,8.43
2018-12-22T07:32:04.385Z,10.40
2018-12-22T07:34:32.191Z,9.87
2018-12-22T07:36:59.946Z,12.43
2018-12-22T07:39:27.658Z,14.20
2018-12-22T07:41:55.432Z,14.67
2018-12-22T07:44:23.080Z,14.80
2018-12-22T07:46:50.793Z,15.90
2018-12-22T07:49:18.404Z,14.40
2018-12-22T07:51:46.117Z,13.37
2018-12-22T07:54:13.757Z,11.70
2018-12-22T07:56:41.433Z,7.33
2018-12-22T07:59:09.109Z,11.70
2018-12-22T08:01:36.765Z,9.50
2018-12-22T08:04:04.475Z,9.60
2018-12-22T08:06:32.195Z,9.37
2018-12-22T08:08:59.882Z,8.33
2018-12-22T08:11:27.571Z,5.80
2018-12-22T08:13:55.225Z,6.57
2018-12-22T08:16:22.889Z,5.90
2018-12-22T08:18:50.548Z,7.13
2018-12-22T08:21:19.252Z,6.13
2018-12-22T08:23:46.909Z,7.87
2018-12-22T08:26:14.547Z,8.40
2018-12-22T08:28:42.245Z,7.20
2018-12-22T08:31:09.857Z,7.97
2018-12-22T08:33:37.518Z,8.10
2018-12-22T08:36:05.223Z,8.63
2018-12-22T08:38:32.870Z,5.80
2018-12-22T08:41:00.629Z,6.03
2018-12-22T08:43:28.293Z,5.70
2018-12-22T08:45:55.937Z,6.40
2018-12-22T08:48:23.556Z,4.70
2018-12-22T08:50:52.410Z,8.70
2018-12-22T08:53:20.023Z,7.80
2018-12-22T08:55:47.734Z,9.13
2018-12-22T08:58:15.407Z,8.60
2018-12-22T09:00:43.185Z,7.30
2018-12-22T09:03:12.406Z,10.23
2018-12-22T09:05:40.115Z,27.97
2018-12-22T09:08:07.728Z,20.87
2018-12-22T09:10:35.414Z,12.73
2018-12-22T09:13:03.204Z,11.17
2018-12-22T09:15:30.858Z,8.57
2018-12-22T09:17:58.459Z,12.27
2018-12-22T09:20:26.125Z,14.80
2018-12-22T09:22:53.729Z,18.20
2018-12-22T09:25:21.392Z,17.10
2018-12-22T09:27:49.274Z,18.10
2018-12-22T09:30:17.047Z,18.87
2018-12-22T09:32:44.719Z,17.63
2018-12-22T09:35:12.549Z,18.53
2018-12-22T09:37:40.176Z,16.87
2018-12-22T09:40:08.046Z,15.10
2018-12-22T09:42:35.671Z,15.40
2018-12-22T09:45:03.724Z,15.13
2018-12-22T09:47:31.400Z,16.80
2018-12-22T09:49:59.137Z,17.23
2018-12-22T09:52:26.974Z,14.30
2018-12-22T09:54:54.650Z,13.07
2018-12-22T09:57:22.258Z,11.80
2018-12-22T09:59:49.948Z,15.50
2018-12-22T10:02:17.792Z,17.70
2018-12-22T10:04:45.416Z,15.77
2018-12-22T10:07:13.416Z,17.70
2018-12-22T10:09:41.231Z,23.83
2018-12-22T10:12:08.992Z,17.77
2018-12-22T10:14:36.622Z,16.00
2018-12-22T10:17:05.064Z,20.63
2018-12-22T10:19:32.678Z,21.53
2018-12-22T10:22:00.433Z,21.70
2018-12-22T10:24:28.069Z,19.53
2018-12-22T10:26:55.758Z,16.83
2018-12-22T10:29:23.403Z,16.20
2018-12-22T10:31:51.070Z,15.67
2018-12-22T10:34:18.655Z,15.53
2018-12-22T10:36:46.353Z,11.40
2018-12-22T10:39:14.041Z,10.30
2018-12-22T10:41:41.702Z,8.30
2018-12-22T10:44:09.382Z,5.80
2018-12-22T10:46:37.131Z,7.00
2018-12-22T10:49:04.720Z,6.90
2018-12-22T10:51:32.574Z,7.97
2018-12-22T10:54:00.349Z,8.40
2018-12-22T10:56:27.966Z,9.70
2018-12-22T10:58:55.673Z,9.00
2018-12-22T11:01:26.582Z,9.10
2018-12-22T11:03:53.119Z,17.70
2018-12-22T11:06:20.964Z,17.27
2018-12-22T11:08:50.605Z,17.80
2018-12-22T11:11:19.508Z,19.17
2018-12-22T11:13:47.201Z,17.90
2018-12-22T11:16:15.259Z,25.63
2018-12-22T11:18:43.143Z,22.53
2018-12-22T11:21:12.347Z,17.73
2018-12-22T11:23:39.958Z,21.50
2018-12-22T11:26:07.688Z,11.73
2018-12-22T11:28:35.277Z,14.50
2018-12-22T11:31:02.912Z,15.17
2018-12-22T11:33:30.589Z,14.20
2018-12-22T11:35:58.365Z,13.87
2018-12-22T11:38:27.040Z,12.53
2018-12-22T11:40:55.605Z,15.77
2018-12-22T11:43:23.748Z,13.57
2018-12-22T11:45:51.479Z,13.83
2018-12-22T11:48:21.545Z,11.70
2018-12-22T11:50:49.310Z,9.60
2018-12-22T11:53:17.205Z,10.37
2018-12-22T11:55:46.008Z,9.47
2018-12-22T11:58:14.126Z,4.60
2018-12-22T12:00:43.768Z,10.17
2018-12-22T12:03:11.655Z,6.90
2018-12-22T12:05:40.222Z,13.33
2018-12-22T12:08:08.755Z,10.30
2018-12-22T12:10:37.689Z,9.50
2018-12-22T12:13:05.434Z,10.23
2018-12-22T12:15:38.215Z,9.87
2018-12-22T12:18:16.826Z,5.57
2018-12-22T12:20:44.632Z,5.43
2018-12-22T12:23:12.462Z,3.57
2018-12-22T12:25:40.398Z,9.03
2018-12-22T12:28:08.173Z,1.30
2018-12-22T12:30:35.965Z,0.57
2018-12-22T12:33:03.969Z,2.07
2018-12-22T12:35:31.949Z,1.80
2018-12-22T12:38:02.169Z,7.80
2018-12-22T12:40:29.933Z,1.43
2018-12-22T12:42:57.690Z,0.63
2018-12-22T12:45:25.841Z,0.40
2018-12-22T12:47:53.628Z,5.90
2018-12-22T12:50:23.634Z,0.83
2018-12-22T12:52:51.354Z,0.30
2018-12-22T12:55:19.011Z,0.50
2018-12-22T12:57:47.296Z,0.30
2018-12-22T13:00:21.158Z,0.30
2018-12-22T13:02:48.758Z,0.30
2018-12-22T13:05:16.412Z,0.30
2018-12-22T13:07:44.097Z,0.33
2018-12-22T13:10:15.108Z,0.30
2018-12-22T13:15:46.571Z,0.37
2018-12-22T13:18:15.961Z,0.37
2018-12-22T13:20:43.686Z,0.30
2018-12-22T13:23:11.327Z,0.40
2018-12-22T13:25:39.165Z,0.50
2018-12-22T13:28:07.690Z,0.30
2018-12-22T13:30:36.329Z,0.60
2018-12-22T13:33:04.714Z,0.50
2018-12-22T13:35:33.747Z,0.20
2018-12-22T13:38:01.350Z,0.27
2018-12-22T13:40:29.145Z,0.80
2018-12-22T13:42:58.075Z,0.30
2018-12-22T13:45:26.978Z,0.20
2018-12-22T13:47:55.979Z,0.40
2018-12-22T13:50:24.137Z,0.30
2018-12-22T13:52:51.963Z,0.40
2018-12-22T13:55:20.826Z,0.20
2018-12-22T13:57:50.687Z,0.30
2018-12-22T14:00:23.259Z,0.40
2018-12-22T14:02:51.035Z,0.37
2018-12-22T14:05:26.211Z,0.40
2018-12-22T14:07:53.872Z,0.40
2018-12-22T14:10:23.218Z,0.30
2018-12-22T14:12:51.097Z,0.30
2018-12-22T14:15:22.541Z,0.30
2018-12-22T14:20:52.841Z,1.27
2018-12-22T14:23:23.210Z,2.37
2018-12-22T14:25:50.839Z,0.50
2018-12-22T14:28:18.479Z,0.43
2018-12-22T14:30:46.453Z,0.20
2018-12-22T14:33:15.100Z,0.30
2018-12-22T14:35:42.825Z,0.30
2018-12-22T14:38:13.022Z,0.33
2018-12-22T14:40:40.778Z,0.30
2018-12-22T14:43:08.462Z,0.30
2018-12-22T14:45:36.142Z,0.20
2018-12-22T14:48:04.583Z,0.30
2018-12-22T14:50:32.254Z,0.40
2018-12-22T14:52:59.996Z,0.20
2018-12-22T14:55:28.771Z,0.30
2018-12-22T14:58:00.230Z,0.30
2018-12-22T15:00:27.897Z,2.10
2018-12-22T15:02:55.747Z,0.20
2018-12-22T15:05:23.446Z,0.60
2018-12-22T15:07:51.655Z,0.50
2018-12-22T15:10:19.431Z,0.87
2018-12-22T15:12:47.638Z,0.77
2018-12-22T15:15:15.935Z,0.97
2018-12-22T15:17:44.278Z,0.47
2018-12-22T15:20:24.490Z,0.30
2018-12-22T15:22:53.907Z,0.60
2018-12-22T15:25:23.204Z,0.40
2018-12-22T15:27:50.901Z,3.70
2018-12-22T15:30:19.809Z,0.70
2018-12-22T15:32:54.382Z,0.40
2018-12-22T15:35:19.457Z,0.50
2018-12-22T15:37:47.148Z,0.57
2018-12-22T15:40:14.902Z,0.30
2018-12-22T15:42:42.560Z,0.30
2018-12-22T15:45:15.601Z,0.60
2018-12-22T15:47:45.012Z,0.73
2018-12-22T15:50:17.896Z,0.97
2018-12-22T15:52:45.783Z,0.50
2018-12-22T15:55:13.855Z,0.80
2018-12-22T15:57:45.093Z,0.40
2018-12-22T16:00:13.682Z,0.90
2018-12-22T16:02:42.548Z,0.47
2018-12-22T16:05:13.528Z,0.33
2018-12-22T16:07:42.328Z,0.93
2018-12-22T16:10:14.011Z,0.30
2018-12-22T16:12:44.387Z,1.47
2018-12-22T16:15:19.328Z,1.77
2018-12-22T16:17:47.793Z,3.07
2018-12-22T16:20:15.527Z,3.23
2018-12-22T16:22:55.339Z,1.40
2018-12-22T16:25:27.363Z,1.40
2018-12-22T16:27:59.892Z,1.07
2018-12-22T16:30:47.865Z,0.73
2018-12-22T16:33:16.801Z,1.20
2018-12-22T16:35:44.566Z,1.63
2018-12-22T16:38:12.982Z,0.50
2018-12-22T16:40:42.074Z,0.60
2018-12-22T16:43:13.320Z,0.63
2018-12-22T16:45:43.339Z,0.40
2018-12-22T16:48:11.962Z,0.40
2018-12-22T16:50:40.172Z,0.50
2018-12-22T16:53:08.666Z,0.40
2018-12-22T16:55:36.604Z,0.33
2018-12-22T16:58:09.843Z,0.50
2018-12-22T17:03:40.219Z,0.20
2018-12-22T17:06:12.636Z,0.50
2018-12-22T17:08:40.445Z,0.67
2018-12-22T17:11:09.102Z,1.07
2018-12-22T17:13:36.866Z,1.00
2018-12-22T17:16:06.318Z,4.50
2018-12-22T17:18:34.283Z,1.70
2018-12-22T17:21:07.979Z,2.50
2018-12-22T17:23:50.311Z,1.10
2018-12-22T17:26:19.153Z,0.90
2018-12-22T17:28:46.826Z,0.87
2018-12-22T17:31:14.608Z,0.37
2018-12-22T17:33:43.718Z,0.50
2018-12-22T17:36:14.428Z,0.73
2018-12-22T17:38:42.385Z,0.30
2018-12-22T17:41:13.604Z,0.47
2018-12-22T17:43:43.432Z,0.70
2018-12-22T17:46:12.897Z,0.40
2018-12-22T17:48:41.367Z,1.10
2018-12-22T17:51:09.158Z,1.43
2018-12-22T17:53:37.364Z,0.50
2018-12-22T17:56:05.134Z,0.37
2018-12-22T17:58:33.113Z,1.03
2018-12-22T18:01:01.044Z,0.60
2018-12-22T18:03:29.004Z,0.30
2018-12-22T18:05:57.832Z,0.20
2018-12-22T18:08:26.424Z,0.40
2018-12-22T18:10:54.312Z,2.30
2018-12-22T18:13:22.141Z,1.37
2018-12-22T18:15:50.943Z,1.70
2018-12-22T18:18:18.899Z,1.00
2018-12-22T18:20:47.210Z,0.40
2018-12-22T18:23:14.934Z,0.90
2018-12-22T18:25:42.696Z,0.33
2018-12-22T18:28:10.563Z,0.80
2018-12-22T18:30:38.342Z,2.43
2018-12-22T18:33:06.334Z,2.80
2018-12-22T18:35:34.477Z,1.50
2018-12-22T18:38:02.800Z,0.37
2018-12-22T18:40:30.970Z,0.30
2018-12-22T18:42:58.775Z,0.20
2018-12-22T18:45:26.962Z,0.30
2018-12-22T18:47:55.593Z,0.30
2018-12-22T18:50:24.545Z,1.13
2018-12-22T18:52:52.651Z,0.53
2018-12-22T18:55:20.388Z,0.50
2018-12-22T18:57:50.096Z,0.60
2018-12-22T19:00:22.087Z,0.47
2018-12-22T19:02:51.742Z,0.70
2018-12-22T19:05:20.307Z,0.37
2018-12-22T19:07:49.029Z,0.20
2018-12-22T19:10:23.020Z,0.20
2018-12-22T19:12:50.678Z,0.33
2018-12-22T19:15:18.617Z,0.40
2018-12-22T19:17:46.439Z,0.40
2018-12-22T19:20:24.114Z,0.30
2018-12-22T19:22:51.873Z,0.30
2018-12-22T19:25:19.797Z,0.20
2018-12-22T19:27:48.394Z,0.40
2018-12-22T19:30:16.174Z,0.80
2018-12-22T19:32:44.185Z,0.30
2018-12-22T19:35:12.092Z,0.60
2018-12-22T19:37:39.882Z,0.20
2018-12-22T19:40:08.847Z,0.20
2018-12-22T19:42:37.334Z,0.50
2018-12-22T19:45:06.823Z,0.40
2018-12-22T19:47:34.552Z,0.30
2018-12-22T19:50:02.535Z,0.30
2018-12-22T19:52:30.257Z,0.40
2018-12-22T19:54:57.866Z,0.30
2018-12-22T19:57:25.625Z,0.60
2018-12-22T19:59:53.366Z,0.27
2018-12-22T20:02:21.134Z,0.30
2018-12-22T20:04:48.832Z,0.30
2018-12-22T20:07:16.543Z,0.50
2018-12-22T20:09:44.988Z,0.20
2018-12-22T20:12:14.157Z,0.37
2018-12-22T20:14:41.961Z,0.60
2018-12-22T20:17:09.802Z,0.90
2018-12-22T20:19:37.828Z,0.50
2018-12-22T20:22:05.659Z,0.70
2018-12-22T20:24:35.170Z,0.37
2018-12-22T20:27:03.636Z,0.70
2018-12-22T20:29:34.896Z,3.10
2018-12-22T20:32:02.532Z,2.50
2018-12-22T20:34:30.239Z,2.23
2018-12-22T20:36:58.637Z,1.43
2018-12-22T20:39:26.664Z,0.30
2018-12-22T20:41:54.338Z,0.30
2018-12-22T20:44:22.930Z,0.30
2018-12-22T20:46:51.477Z,0.50
2018-12-22T20:49:21.133Z,0.40
2018-12-22T20:51:48.852Z,0.83
2018-12-22T20:54:17.519Z,0.70
2018-12-22T20:56:45.505Z,1.80
2018-12-22T20:59:14.009Z,3.27
2018-12-22T21:01:41.810Z,3.17
2018-12-22T21:04:19.618Z,3.63
2018-12-22T21:06:40.739Z,3.17
2018-12-22T21:09:08.485Z,3.47
2018-12-22T21:11:36.330Z,3.77
2018-12-22T21:14:04.935Z,3.40
2018-12-22T21:16:33.688Z,0.63
2018-12-22T21:19:01.442Z,1.60
2018-12-22T21:21:30.199Z,1.63
2018-12-22T21:23:57.920Z,0.30
2018-12-22T21:26:26.999Z,0.20
2018-12-22T21:28:54.643Z,0.20
2018-12-22T21:31:22.439Z,0.30
2018-12-22T21:33:50.076Z,0.50
2018-12-22T21:36:17.730Z,0.20
2018-12-22T21:38:45.440Z,0.27
2018-12-22T21:41:13.048Z,0.30
2018-12-22T21:43:40.740Z,0.20
2018-12-22T21:46:10.090Z,0.17
2018-12-22T21:48:38.099Z,0.20
2018-12-22T21:51:05.809Z,0.20
2018-12-22T21:53:34.175Z,0.20
2018-12-22T21:56:01.817Z,0.20
2018-12-22T21:58:29.523Z,0.10
2018-12-22T22:00:57.165Z,0.20
2018-12-22T22:03:24.907Z,0.20
2018-12-22T22:05:52.584Z,0.10
2018-12-22T22:08:20.652Z,0.10
2018-12-22T22:10:48.525Z,0.37
2018-12-22T22:13:16.386Z,0.30
2018-12-22T22:15:44.102Z,0.20
2018-12-22T22:18:11.795Z,0.20
2018-12-22T22:20:39.470Z,0.10
2018-12-22T22:23:08.305Z,0.10
2018-12-22T22:25:36.096Z,0.20
2018-12-22T22:28:03.994Z,0.10
2018-12-22T22:30:32.090Z,0.10
2018-12-22T22:33:01.507Z,0.10
2018-12-22T22:35:29.114Z,0.10
2018-12-22T22:37:58.441Z,0.20
2018-12-22T22:40:26.430Z,0.20
2018-12-22T22:42:54.889Z,0.20
2018-12-22T22:45:23.301Z,0.30
2018-12-22T22:47:51.342Z,0.20
2018-12-22T22:50:19.176Z,0.20
2018-12-22T22:52:48.728Z,0.20
2018-12-22T22:55:16.429Z,0.20
2018-12-22T22:57:44.239Z,0.10
2018-12-22T23:00:14.358Z,0.20
2018-12-22T23:02:42.221Z,0.20
2018-12-22T23:05:09.903Z,0.10
2018-12-22T23:07:37.590Z,0.10
2018-12-22T23:10:07.354Z,0.20
2018-12-22T23:12:36.267Z,0.20
2018-12-22T23:15:04.549Z,0.20
2018-12-22T23:17:32.399Z,0.20
2018-12-22T23:20:01.221Z,0.20
2018-12-22T23:22:29.048Z,0.20
2018-12-22T23:24:57.547Z,0.20
2018-12-22T23:27:25.403Z,0.20
2018-12-22T23:29:54.088Z,0.23
2018-12-22T23:32:23.184Z,0.40
2018-12-22T23:34:51.094Z,0.20
2018-12-22T23:37:18.820Z,0.30
2018-12-22T23:39:47.401Z,0.43
2018-12-22T23:42:15.406Z,0.63
2018-12-22T23:44:44.026Z,0.37
2018-12-22T23:47:12.527Z,0.40
2018-12-22T23:49:40.414Z,0.40
2018-12-22T23:52:08.273Z,0.40
2018-12-22T23:54:35.880Z,0.40
2018-12-22T23:57:03.563Z,0.50
2018-12-22T23:59:31.364Z,1.10
